sensor_id;sensor_type;location;lat;lon;timestamp;temperature;humidity
48912;DHT22;34722;52.108;5.044;2023-11-21T00:01:02;5.40;99.90
48912;DHT22;34722;52.108;5.044;2023-11-21T00:03:30;5.50;99.90
48912;DHT22;34722;52.108;5.044;2023-11-21T00:05:55;5.40;99.90
48912;DHT22;34722;52.108;5.044;2023-11-21T00:08:21;5.40;99.90
48912;DHT22;34722;52.108;5.044;2023-11-21T00:10:46;5.30;99.90
48912;DHT22;34722;52.108;5.044;2023-11-21T00:13:13;5.30;99.90
48912;DHT22;34722;52.108;5.044;2023-11-21T00:15:38;5.30;99.90
48912;DHT22;34722;52.108;5.044;2023-11-21T00:18:04;5.30;99.90
48912;DHT22;34722;52.108;5.044;2023-11-21T00:20:30;5.20;99.90
48912;DHT22;34722;52.108;5.044;2023-11-21T00:22:56;5.20;99.90
48912;DHT22;34722;52.108;5.044;2023-11-21T00:25:21;5.20;99.90
48912;DHT22;34722;52.108;5.044;2023-11-21T00:27:47;5.20;99.90
48912;DHT22;34722;52.108;5.044;2023-11-21T00:30:13;5.10;99.90
48912;DHT22;34722;52.108;5.044;2023-11-21T00:32:39;5.10;99.90
48912;DHT22;34722;52.108;5.044;2023-11-21T00:35:05;5.20;99.90
48912;DHT22;34722;52.108;5.044;2023-11-21T00:37:31;5.10;99.90
48912;DHT22;34722;52.108;5.044;2023-11-21T00:39:57;5.20;99.90
48912;DHT22;34722;52.108;5.044;2023-11-21T00:42:23;5.20;99.90
48912;DHT22;34722;52.108;5.044;2023-11-21T00:44:49;5.30;99.90
48912;DHT22;34722;52.108;5.044;2023-11-21T00:47:15;5.20;99.90
48912;DHT22;34722;52.108;5.044;2023-11-21T00:49:41;5.20;99.90
48912;DHT22;34722;52.108;5.044;2023-11-21T00:52:07;5.20;99.90
48912;DHT22;34722;52.108;5.044;2023-11-21T00:54:32;5.20;99.90
48912;DHT22;34722;52.108;5.044;2023-11-21T00:56:59;5.30;99.90
48912;DHT22;34722;52.108;5.044;2023-11-21T00:59:24;5.20;99.90
48912;DHT22;34722;52.108;5.044;2023-11-21T01:01:50;5.20;99.90
48912;DHT22;34722;52.108;5.044;2023-11-21T01:04:16;5.30;99.90
48912;DHT22;34722;52.108;5.044;2023-11-21T01:06:41;5.30;99.90
48912;DHT22;34722;52.108;5.044;2023-11-21T01:09:07;5.40;99.90
48912;DHT22;34722;52.108;5.044;2023-11-21T01:11:34;5.40;99.90
48912;DHT22;34722;52.108;5.044;2023-11-21T01:14:03;5.50;99.90
48912;DHT22;34722;52.108;5.044;2023-11-21T01:16:29;5.40;99.90
48912;DHT22;34722;52.108;5.044;2023-11-21T01:18:58;5.40;99.90
48912;DHT22;34722;52.108;5.044;2023-11-21T01:21:24;5.40;99.90
48912;DHT22;34722;52.108;5.044;2023-11-21T01:23:50;5.60;99.90
48912;DHT22;34722;52.108;5.044;2023-11-21T01:26:16;5.60;99.90
48912;DHT22;34722;52.108;5.044;2023-11-21T01:28:41;5.80;99.90
48912;DHT22;34722;52.108;5.044;2023-11-21T01:31:07;5.90;99.90
48912;DHT22;34722;52.108;5.044;2023-11-21T01:33:33;5.90;99.90
48912;DHT22;34722;52.108;5.044;2023-11-21T01:35:58;6.00;99.90
48912;DHT22;34722;52.108;5.044;2023-11-21T01:38:25;6.10;99.90
48912;DHT22;34722;52.108;5.044;2023-11-21T01:40:51;6.20;99.90
48912;DHT22;34722;52.108;5.044;2023-11-21T01:43:16;6.30;99.90
48912;DHT22;34722;52.108;5.044;2023-11-21T01:45:42;6.30;99.90
48912;DHT22;34722;52.108;5.044;2023-11-21T01:48:08;6.40;99.90
48912;DHT22;34722;52.108;5.044;2023-11-21T01:50:34;6.40;99.90
48912;DHT22;34722;52.108;5.044;2023-11-21T01:53:00;6.50;99.90
48912;DHT22;34722;52.108;5.044;2023-11-21T01:55:27;6.60;99.90
48912;DHT22;34722;52.108;5.044;2023-11-21T01:57:54;6.60;99.90
48912;DHT22;34722;52.108;5.044;2023-11-21T02:00:20;6.60;99.90
48912;DHT22;34722;52.108;5.044;2023-11-21T02:02:48;6.70;99.90
48912;DHT22;34722;52.108;5.044;2023-11-21T02:05:18;6.70;99.90
48912;DHT22;34722;52.108;5.044;2023-11-21T02:07:44;6.80;99.90
48912;DHT22;34722;52.108;5.044;2023-11-21T02:10:10;6.80;99.90
48912;DHT22;34722;52.108;5.044;2023-11-21T02:12:40;6.90;99.90
48912;DHT22;34722;52.108;5.044;2023-11-21T02:15:08;6.90;99.90
48912;DHT22;34722;52.108;5.044;2023-11-21T02:17:43;6.90;99.90
48912;DHT22;34722;52.108;5.044;2023-11-21T02:20:10;6.90;99.90
48912;DHT22;34722;52.108;5.044;2023-11-21T02:22:41;7.00;99.90
48912;DHT22;34722;52.108;5.044;2023-11-21T02:25:08;7.00;99.90
48912;DHT22;34722;52.108;5.044;2023-11-21T02:27:33;7.10;99.90
48912;DHT22;34722;52.108;5.044;2023-11-21T02:29:59;7.10;99.90
48912;DHT22;34722;52.108;5.044;2023-11-21T02:32:26;7.10;99.90
48912;DHT22;34722;52.108;5.044;2023-11-21T02:34:52;7.20;99.90
48912;DHT22;34722;52.108;5.044;2023-11-21T02:37:19;7.20;99.90
48912;DHT22;34722;52.108;5.044;2023-11-21T02:39:45;7.20;99.90
48912;DHT22;34722;52.108;5.044;2023-11-21T02:42:11;7.30;99.90
48912;DHT22;34722;52.108;5.044;2023-11-21T02:44:36;7.30;99.90
48912;DHT22;34722;52.108;5.044;2023-11-21T02:47:02;7.30;99.90
48912;DHT22;34722;52.108;5.044;2023-11-21T02:49:28;7.30;99.90
48912;DHT22;34722;52.108;5.044;2023-11-21T02:51:54;7.30;99.90
48912;DHT22;34722;52.108;5.044;2023-11-21T02:54:22;7.30;99.90
48912;DHT22;34722;52.108;5.044;2023-11-21T02:56:48;7.30;99.90
48912;DHT22;34722;52.108;5.044;2023-11-21T02:59:15;7.30;99.90
48912;DHT22;34722;52.108;5.044;2023-11-21T03:01:41;7.30;99.90
48912;DHT22;34722;52.108;5.044;2023-11-21T03:04:06;7.30;99.90
48912;DHT22;34722;52.108;5.044;2023-11-21T03:06:32;7.40;99.90
48912;DHT22;34722;52.108;5.044;2023-11-21T03:08:59;7.40;99.90
48912;DHT22;34722;52.108;5.044;2023-11-21T03:11:24;7.40;99.90
48912;DHT22;34722;52.108;5.044;2023-11-21T03:13:50;7.40;99.90
48912;DHT22;34722;52.108;5.044;2023-11-21T03:16:16;7.40;99.90
48912;DHT22;34722;52.108;5.044;2023-11-21T03:18:41;7.40;99.90
48912;DHT22;34722;52.108;5.044;2023-11-21T03:21:07;7.50;99.90
48912;DHT22;34722;52.108;5.044;2023-11-21T03:23:36;7.50;99.90
48912;DHT22;34722;52.108;5.044;2023-11-21T03:26:03;7.50;99.90
48912;DHT22;34722;52.108;5.044;2023-11-21T03:28:28;7.50;99.90
48912;DHT22;34722;52.108;5.044;2023-11-21T03:30:55;7.50;99.90
48912;DHT22;34722;52.108;5.044;2023-11-21T03:33:21;7.50;99.90
48912;DHT22;34722;52.108;5.044;2023-11-21T03:35:48;7.50;99.90
48912;DHT22;34722;52.108;5.044;2023-11-21T03:38:13;7.50;99.90
48912;DHT22;34722;52.108;5.044;2023-11-21T03:40:39;7.50;99.90
48912;DHT22;34722;52.108;5.044;2023-11-21T03:43:07;7.50;99.90
48912;DHT22;34722;52.108;5.044;2023-11-21T03:45:33;7.50;99.90
48912;DHT22;34722;52.108;5.044;2023-11-21T03:47:59;7.50;99.90
48912;DHT22;34722;52.108;5.044;2023-11-21T03:50:28;7.60;99.90
48912;DHT22;34722;52.108;5.044;2023-11-21T03:55:28;7.60;99.90
48912;DHT22;34722;52.108;5.044;2023-11-21T03:57:56;7.60;99.90
48912;DHT22;34722;52.108;5.044;2023-11-21T04:00:23;7.60;99.90
48912;DHT22;34722;52.108;5.044;2023-11-21T04:02:49;7.60;99.90
48912;DHT22;34722;52.108;5.044;2023-11-21T04:05:16;7.70;99.90
48912;DHT22;34722;52.108;5.044;2023-11-21T04:07:41;7.70;99.90
48912;DHT22;34722;52.108;5.044;2023-11-21T04:10:08;7.70;99.90
48912;DHT22;34722;52.108;5.044;2023-11-21T04:12:35;7.70;99.90
48912;DHT22;34722;52.108;5.044;2023-11-21T04:15:01;7.70;99.90
48912;DHT22;34722;52.108;5.044;2023-11-21T04:17:26;7.70;99.90
48912;DHT22;34722;52.108;5.044;2023-11-21T04:19:52;7.70;99.90
48912;DHT22;34722;52.108;5.044;2023-11-21T04:22:17;7.70;99.90
48912;DHT22;34722;52.108;5.044;2023-11-21T04:24:43;7.70;99.90
48912;DHT22;34722;52.108;5.044;2023-11-21T04:27:09;7.80;99.90
48912;DHT22;34722;52.108;5.044;2023-11-21T04:29:34;7.80;99.90
48912;DHT22;34722;52.108;5.044;2023-11-21T04:32:01;7.80;99.90
48912;DHT22;34722;52.108;5.044;2023-11-21T04:34:28;7.80;99.90
48912;DHT22;34722;52.108;5.044;2023-11-21T04:36:56;7.90;99.90
48912;DHT22;34722;52.108;5.044;2023-11-21T04:39:22;7.90;99.90
48912;DHT22;34722;52.108;5.044;2023-11-21T04:41:48;7.90;99.90
48912;DHT22;34722;52.108;5.044;2023-11-21T04:44:16;7.90;99.90
48912;DHT22;34722;52.108;5.044;2023-11-21T04:46:42;8.00;99.90
48912;DHT22;34722;52.108;5.044;2023-11-21T04:49:08;8.10;99.90
48912;DHT22;34722;52.108;5.044;2023-11-21T04:51:34;8.10;99.90
48912;DHT22;34722;52.108;5.044;2023-11-21T04:53:59;8.10;99.90
48912;DHT22;34722;52.108;5.044;2023-11-21T04:56:25;8.10;99.90
48912;DHT22;34722;52.108;5.044;2023-11-21T04:58:50;8.10;99.90
48912;DHT22;34722;52.108;5.044;2023-11-21T05:01:16;8.20;99.90
48912;DHT22;34722;52.108;5.044;2023-11-21T05:03:42;8.20;99.90
48912;DHT22;34722;52.108;5.044;2023-11-21T05:06:10;8.20;99.90
48912;DHT22;34722;52.108;5.044;2023-11-21T05:08:35;8.20;99.90
48912;DHT22;34722;52.108;5.044;2023-11-21T05:11:02;8.30;99.90
48912;DHT22;34722;52.108;5.044;2023-11-21T05:13:28;8.30;99.90
48912;DHT22;34722;52.108;5.044;2023-11-21T05:15:57;8.20;99.90
48912;DHT22;34722;52.108;5.044;2023-11-21T05:18:23;8.20;99.90
48912;DHT22;34722;52.108;5.044;2023-11-21T05:20:48;8.30;99.90
48912;DHT22;34722;52.108;5.044;2023-11-21T05:23:14;8.20;99.90
48912;DHT22;34722;52.108;5.044;2023-11-21T05:25:40;8.20;99.90
48912;DHT22;34722;52.108;5.044;2023-11-21T05:28:06;8.10;99.90
48912;DHT22;34722;52.108;5.044;2023-11-21T05:30:32;8.20;99.90
48912;DHT22;34722;52.108;5.044;2023-11-21T05:33:03;8.20;99.90
48912;DHT22;34722;52.108;5.044;2023-11-21T05:35:29;8.20;99.90
48912;DHT22;34722;52.108;5.044;2023-11-21T05:37:54;8.30;99.90
48912;DHT22;34722;52.108;5.044;2023-11-21T05:40:20;8.30;99.90
48912;DHT22;34722;52.108;5.044;2023-11-21T05:42:47;8.20;99.90
48912;DHT22;34722;52.108;5.044;2023-11-21T05:45:13;8.20;99.90
48912;DHT22;34722;52.108;5.044;2023-11-21T05:47:41;8.20;99.90
48912;DHT22;34722;52.108;5.044;2023-11-21T05:50:11;8.30;99.90
48912;DHT22;34722;52.108;5.044;2023-11-21T05:52:41;8.40;99.90
48912;DHT22;34722;52.108;5.044;2023-11-21T05:55:08;8.40;99.90
48912;DHT22;34722;52.108;5.044;2023-11-21T05:57:38;8.50;99.90
48912;DHT22;34722;52.108;5.044;2023-11-21T06:00:05;8.50;99.90
48912;DHT22;34722;52.108;5.044;2023-11-21T06:02:40;8.50;99.90
48912;DHT22;34722;52.108;5.044;2023-11-21T06:05:09;8.50;99.90
48912;DHT22;34722;52.108;5.044;2023-11-21T06:07:38;8.50;99.90
48912;DHT22;34722;52.108;5.044;2023-11-21T06:10:07;8.60;99.90
48912;DHT22;34722;52.108;5.044;2023-11-21T06:12:35;8.50;99.90
48912;DHT22;34722;52.108;5.044;2023-11-21T06:15:02;8.50;99.90
48912;DHT22;34722;52.108;5.044;2023-11-21T06:17:31;8.60;99.90
48912;DHT22;34722;52.108;5.044;2023-11-21T06:19:57;8.60;99.90
48912;DHT22;34722;52.108;5.044;2023-11-21T06:22:23;8.60;99.90
48912;DHT22;34722;52.108;5.044;2023-11-21T06:24:48;8.70;99.90
48912;DHT22;34722;52.108;5.044;2023-11-21T06:27:17;8.70;99.90
48912;DHT22;34722;52.108;5.044;2023-11-21T06:29:42;8.70;99.90
48912;DHT22;34722;52.108;5.044;2023-11-21T06:32:08;8.60;99.90
48912;DHT22;34722;52.108;5.044;2023-11-21T06:34:37;8.60;99.90
48912;DHT22;34722;52.108;5.044;2023-11-21T06:37:11;8.60;99.90
48912;DHT22;34722;52.108;5.044;2023-11-21T06:39:39;8.60;99.90
48912;DHT22;34722;52.108;5.044;2023-11-21T06:42:05;8.60;99.90
48912;DHT22;34722;52.108;5.044;2023-11-21T06:44:31;8.60;99.90
48912;DHT22;34722;52.108;5.044;2023-11-21T06:47:01;8.70;99.90
48912;DHT22;34722;52.108;5.044;2023-11-21T06:49:27;8.70;99.90
48912;DHT22;34722;52.108;5.044;2023-11-21T06:51:55;8.80;99.90
48912;DHT22;34722;52.108;5.044;2023-11-21T06:54:41;8.80;99.90
48912;DHT22;34722;52.108;5.044;2023-11-21T06:57:10;8.90;99.90
48912;DHT22;34722;52.108;5.044;2023-11-21T06:59:36;8.90;99.90
48912;DHT22;34722;52.108;5.044;2023-11-21T07:02:01;8.90;99.90
48912;DHT22;34722;52.108;5.044;2023-11-21T07:04:30;9.00;99.90
48912;DHT22;34722;52.108;5.044;2023-11-21T07:06:57;9.00;99.90
48912;DHT22;34722;52.108;5.044;2023-11-21T07:09:28;9.00;99.90
48912;DHT22;34722;52.108;5.044;2023-11-21T07:11:57;9.00;99.90
48912;DHT22;34722;52.108;5.044;2023-11-21T07:14:23;9.10;99.90
48912;DHT22;34722;52.108;5.044;2023-11-21T07:16:49;9.10;99.90
48912;DHT22;34722;52.108;5.044;2023-11-21T07:19:18;9.10;99.90
48912;DHT22;34722;52.108;5.044;2023-11-21T07:21:54;9.20;99.90
48912;DHT22;34722;52.108;5.044;2023-11-21T07:24:31;9.30;99.90
48912;DHT22;34722;52.108;5.044;2023-11-21T07:26:57;9.30;99.90
48912;DHT22;34722;52.108;5.044;2023-11-21T07:29:24;9.30;99.90
48912;DHT22;34722;52.108;5.044;2023-11-21T07:31:54;9.40;99.90
48912;DHT22;34722;52.108;5.044;2023-11-21T07:34:21;9.40;99.90
48912;DHT22;34722;52.108;5.044;2023-11-21T07:36:46;9.50;99.90
48912;DHT22;34722;52.108;5.044;2023-11-21T07:39:15;9.50;99.90
48912;DHT22;34722;52.108;5.044;2023-11-21T07:41:41;9.60;99.90
48912;DHT22;34722;52.108;5.044;2023-11-21T07:44:14;9.60;99.90
48912;DHT22;34722;52.108;5.044;2023-11-21T07:46:40;9.60;99.90
48912;DHT22;34722;52.108;5.044;2023-11-21T07:49:06;9.60;99.90
48912;DHT22;34722;52.108;5.044;2023-11-21T07:51:31;9.70;99.90
48912;DHT22;34722;52.108;5.044;2023-11-21T07:53:57;9.70;99.90
48912;DHT22;34722;52.108;5.044;2023-11-21T07:56:22;9.70;99.90
48912;DHT22;34722;52.108;5.044;2023-11-21T07:58:48;9.70;99.90
48912;DHT22;34722;52.108;5.044;2023-11-21T08:01:15;9.80;99.90
48912;DHT22;34722;52.108;5.044;2023-11-21T08:03:40;9.90;99.90
48912;DHT22;34722;52.108;5.044;2023-11-21T08:06:07;9.80;99.90
48912;DHT22;34722;52.108;5.044;2023-11-21T08:08:33;9.90;99.90
48912;DHT22;34722;52.108;5.044;2023-11-21T08:10:58;9.90;99.90
48912;DHT22;34722;52.108;5.044;2023-11-21T08:13:28;9.90;99.90
48912;DHT22;34722;52.108;5.044;2023-11-21T08:15:58;9.90;99.90
48912;DHT22;34722;52.108;5.044;2023-11-21T08:18:30;9.90;99.90
48912;DHT22;34722;52.108;5.044;2023-11-21T08:20:56;9.90;99.90
48912;DHT22;34722;52.108;5.044;2023-11-21T08:23:22;9.90;99.90
48912;DHT22;34722;52.108;5.044;2023-11-21T08:25:52;9.90;99.90
48912;DHT22;34722;52.108;5.044;2023-11-21T08:28:18;9.90;99.90
48912;DHT22;34722;52.108;5.044;2023-11-21T08:30:44;9.90;99.90
48912;DHT22;34722;52.108;5.044;2023-11-21T08:35:38;10.00;99.90
48912;DHT22;34722;52.108;5.044;2023-11-21T08:38:22;10.00;99.90
48912;DHT22;34722;52.108;5.044;2023-11-21T08:40:48;10.10;99.90
48912;DHT22;34722;52.108;5.044;2023-11-21T08:43:13;10.10;99.90
48912;DHT22;34722;52.108;5.044;2023-11-21T08:45:41;10.20;99.90
48912;DHT22;34722;52.108;5.044;2023-11-21T08:48:07;10.20;99.90
48912;DHT22;34722;52.108;5.044;2023-11-21T08:50:32;10.30;99.90
48912;DHT22;34722;52.108;5.044;2023-11-21T08:52:58;10.40;99.90
48912;DHT22;34722;52.108;5.044;2023-11-21T08:55:24;10.50;99.90
48912;DHT22;34722;52.108;5.044;2023-11-21T08:57:49;10.50;99.90
48912;DHT22;34722;52.108;5.044;2023-11-21T09:00:16;10.50;99.90
48912;DHT22;34722;52.108;5.044;2023-11-21T09:02:45;10.50;99.90
48912;DHT22;34722;52.108;5.044;2023-11-21T09:05:11;10.40;99.90
48912;DHT22;34722;52.108;5.044;2023-11-21T09:10:13;10.40;99.90
48912;DHT22;34722;52.108;5.044;2023-11-21T09:12:38;10.30;99.90
48912;DHT22;34722;52.108;5.044;2023-11-21T09:15:05;10.20;99.90
48912;DHT22;34722;52.108;5.044;2023-11-21T09:17:32;10.20;99.90
48912;DHT22;34722;52.108;5.044;2023-11-21T09:19:59;10.20;99.90
48912;DHT22;34722;52.108;5.044;2023-11-21T09:22:25;10.20;99.90
48912;DHT22;34722;52.108;5.044;2023-11-21T09:24:51;10.20;99.90
48912;DHT22;34722;52.108;5.044;2023-11-21T09:27:17;10.10;99.90
48912;DHT22;34722;52.108;5.044;2023-11-21T09:29:43;10.10;99.90
48912;DHT22;34722;52.108;5.044;2023-11-21T09:32:09;10.10;99.90
48912;DHT22;34722;52.108;5.044;2023-11-21T09:34:38;10.10;99.90
48912;DHT22;34722;52.108;5.044;2023-11-21T09:37:04;10.10;99.90
48912;DHT22;34722;52.108;5.044;2023-11-21T09:39:32;10.10;99.90
48912;DHT22;34722;52.108;5.044;2023-11-21T09:42:04;10.10;99.90
48912;DHT22;34722;52.108;5.044;2023-11-21T09:44:32;10.10;99.90
48912;DHT22;34722;52.108;5.044;2023-11-21T09:47:01;10.10;99.90
48912;DHT22;34722;52.108;5.044;2023-11-21T09:49:28;10.10;99.90
48912;DHT22;34722;52.108;5.044;2023-11-21T09:51:55;10.20;99.90
48912;DHT22;34722;52.108;5.044;2023-11-21T09:54:25;10.20;99.90
48912;DHT22;34722;52.108;5.044;2023-11-21T09:56:50;10.20;99.90
48912;DHT22;34722;52.108;5.044;2023-11-21T09:59:16;10.20;99.90
48912;DHT22;34722;52.108;5.044;2023-11-21T10:01:42;10.20;99.90
48912;DHT22;34722;52.108;5.044;2023-11-21T10:04:09;10.20;99.90
48912;DHT22;34722;52.108;5.044;2023-11-21T10:06:41;10.20;99.90
48912;DHT22;34722;52.108;5.044;2023-11-21T10:09:09;10.20;99.90
48912;DHT22;34722;52.108;5.044;2023-11-21T10:11:43;10.20;99.90
48912;DHT22;34722;52.108;5.044;2023-11-21T10:14:12;10.20;99.90
48912;DHT22;34722;52.108;5.044;2023-11-21T10:16:40;10.20;99.90
48912;DHT22;34722;52.108;5.044;2023-11-21T10:19:06;10.20;99.90
48912;DHT22;34722;52.108;5.044;2023-11-21T10:21:35;10.20;99.90
48912;DHT22;34722;52.108;5.044;2023-11-21T10:24:00;10.20;99.90
48912;DHT22;34722;52.108;5.044;2023-11-21T10:26:29;10.20;99.90
48912;DHT22;34722;52.108;5.044;2023-11-21T10:29:01;10.20;99.90
48912;DHT22;34722;52.108;5.044;2023-11-21T10:31:32;10.20;99.90
48912;DHT22;34722;52.108;5.044;2023-11-21T10:34:17;10.20;99.90
48912;DHT22;34722;52.108;5.044;2023-11-21T10:36:44;10.20;99.90
48912;DHT22;34722;52.108;5.044;2023-11-21T10:39:16;10.30;99.90
48912;DHT22;34722;52.108;5.044;2023-11-21T10:41:47;10.20;99.90
48912;DHT22;34722;52.108;5.044;2023-11-21T10:44:17;10.20;99.90
48912;DHT22;34722;52.108;5.044;2023-11-21T10:46:50;10.20;99.90
48912;DHT22;34722;52.108;5.044;2023-11-21T10:49:20;10.20;99.90
48912;DHT22;34722;52.108;5.044;2023-11-21T10:51:46;10.20;99.90
48912;DHT22;34722;52.108;5.044;2023-11-21T10:54:18;10.20;99.90
48912;DHT22;34722;52.108;5.044;2023-11-21T10:56:44;10.20;99.90
48912;DHT22;34722;52.108;5.044;2023-11-21T10:59:10;10.20;99.90
48912;DHT22;34722;52.108;5.044;2023-11-21T11:01:47;10.20;99.90
48912;DHT22;34722;52.108;5.044;2023-11-21T11:04:15;10.20;99.90
48912;DHT22;34722;52.108;5.044;2023-11-21T11:06:44;10.20;99.90
48912;DHT22;34722;52.108;5.044;2023-11-21T11:09:13;10.20;99.90
48912;DHT22;34722;52.108;5.044;2023-11-21T11:11:40;10.30;99.90
48912;DHT22;34722;52.108;5.044;2023-11-21T11:14:10;10.30;99.90
48912;DHT22;34722;52.108;5.044;2023-11-21T11:16:38;10.30;99.90
48912;DHT22;34722;52.108;5.044;2023-11-21T11:19:05;10.30;99.90
48912;DHT22;34722;52.108;5.044;2023-11-21T11:38:15;10.20;99.90
48912;DHT22;34722;52.108;5.044;2023-11-21T11:40:45;10.20;99.90
48912;DHT22;34722;52.108;5.044;2023-11-21T11:43:11;10.20;99.90
48912;DHT22;34722;52.108;5.044;2023-11-21T11:45:37;10.20;99.90
48912;DHT22;34722;52.108;5.044;2023-11-21T11:48:18;10.20;99.90
48912;DHT22;34722;52.108;5.044;2023-11-21T11:51:05;10.20;99.90
48912;DHT22;34722;52.108;5.044;2023-11-21T11:53:45;10.20;99.90
48912;DHT22;34722;52.108;5.044;2023-11-21T11:56:32;10.20;99.90
48912;DHT22;34722;52.108;5.044;2023-11-21T11:59:03;10.20;99.90
48912;DHT22;34722;52.108;5.044;2023-11-21T12:01:31;10.20;99.90
48912;DHT22;34722;52.108;5.044;2023-11-21T12:06:44;10.40;99.90
48912;DHT22;34722;52.108;5.044;2023-11-21T12:09:23;10.30;99.90
48912;DHT22;34722;52.108;5.044;2023-11-21T12:11:50;10.30;99.90
48912;DHT22;34722;52.108;5.044;2023-11-21T12:14:16;10.40;99.90
48912;DHT22;34722;52.108;5.044;2023-11-21T12:16:42;10.40;99.90
48912;DHT22;34722;52.108;5.044;2023-11-21T12:19:09;10.30;99.90
48912;DHT22;34722;52.108;5.044;2023-11-21T12:21:36;10.40;99.90
48912;DHT22;34722;52.108;5.044;2023-11-21T12:24:02;10.40;99.90
48912;DHT22;34722;52.108;5.044;2023-11-21T12:26:28;10.40;99.90
48912;DHT22;34722;52.108;5.044;2023-11-21T12:28:54;10.40;99.90
48912;DHT22;34722;52.108;5.044;2023-11-21T12:31:21;10.40;99.90
48912;DHT22;34722;52.108;5.044;2023-11-21T12:33:47;10.40;99.90
48912;DHT22;34722;52.108;5.044;2023-11-21T12:36:13;10.40;99.90
48912;DHT22;34722;52.108;5.044;2023-11-21T12:38:38;10.30;99.90
48912;DHT22;34722;52.108;5.044;2023-11-21T12:41:05;10.40;99.90
48912;DHT22;34722;52.108;5.044;2023-11-21T12:43:32;10.40;99.90
48912;DHT22;34722;52.108;5.044;2023-11-21T12:46:08;10.40;99.90
48912;DHT22;34722;52.108;5.044;2023-11-21T12:48:41;10.40;99.90
48912;DHT22;34722;52.108;5.044;2023-11-21T12:53:37;10.60;99.90
48912;DHT22;34722;52.108;5.044;2023-11-21T12:56:22;10.70;99.90
48912;DHT22;34722;52.108;5.044;2023-11-21T12:58:54;10.70;99.90
48912;DHT22;34722;52.108;5.044;2023-11-21T13:01:25;10.80;99.90
48912;DHT22;34722;52.108;5.044;2023-11-21T13:03:53;10.70;99.90
48912;DHT22;34722;52.108;5.044;2023-11-21T13:06:19;10.60;99.90
48912;DHT22;34722;52.108;5.044;2023-11-21T13:08:47;10.50;99.90
48912;DHT22;34722;52.108;5.044;2023-11-21T13:11:13;10.50;99.90
48912;DHT22;34722;52.108;5.044;2023-11-21T13:13:41;10.30;99.90
48912;DHT22;34722;52.108;5.044;2023-11-21T13:16:18;10.20;99.90
48912;DHT22;34722;52.108;5.044;2023-11-21T13:18:46;10.10;99.90
48912;DHT22;34722;52.108;5.044;2023-11-21T13:21:12;10.20;99.90
48912;DHT22;34722;52.108;5.044;2023-11-21T13:23:41;10.00;99.90
48912;DHT22;34722;52.108;5.044;2023-11-21T13:26:10;9.90;99.90
48912;DHT22;34722;52.108;5.044;2023-11-21T13:28:40;10.00;99.90
48912;DHT22;34722;52.108;5.044;2023-11-21T13:31:11;9.90;99.90
48912;DHT22;34722;52.108;5.044;2023-11-21T13:33:52;9.90;99.90
48912;DHT22;34722;52.108;5.044;2023-11-21T13:36:24;9.80;99.90
48912;DHT22;34722;52.108;5.044;2023-11-21T13:38:51;9.80;99.90
48912;DHT22;34722;52.108;5.044;2023-11-21T13:41:18;9.80;99.90
48912;DHT22;34722;52.108;5.044;2023-11-21T13:43:44;9.80;99.90
48912;DHT22;34722;52.108;5.044;2023-11-21T13:46:24;9.80;99.90
48912;DHT22;34722;52.108;5.044;2023-11-21T13:48:50;9.80;99.90
48912;DHT22;34722;52.108;5.044;2023-11-21T13:51:20;9.80;99.90
48912;DHT22;34722;52.108;5.044;2023-11-21T13:53:54;9.80;99.90
48912;DHT22;34722;52.108;5.044;2023-11-21T13:56:20;9.90;99.90
48912;DHT22;34722;52.108;5.044;2023-11-21T13:58:49;9.80;99.90
48912;DHT22;34722;52.108;5.044;2023-11-21T14:01:18;9.80;99.90
48912;DHT22;34722;52.108;5.044;2023-11-21T14:03:57;9.70;99.90
48912;DHT22;34722;52.108;5.044;2023-11-21T14:06:31;9.70;99.90
48912;DHT22;34722;52.108;5.044;2023-11-21T14:09:04;9.70;99.90
48912;DHT22;34722;52.108;5.044;2023-11-21T14:11:31;9.60;99.90
48912;DHT22;34722;52.108;5.044;2023-11-21T14:13:57;9.60;99.90
48912;DHT22;34722;52.108;5.044;2023-11-21T14:16:24;9.60;99.90
48912;DHT22;34722;52.108;5.044;2023-11-21T14:18:50;9.70;99.90
48912;DHT22;34722;52.108;5.044;2023-11-21T14:21:22;9.70;99.90
48912;DHT22;34722;52.108;5.044;2023-11-21T14:23:48;9.60;99.90
48912;DHT22;34722;52.108;5.044;2023-11-21T14:26:14;9.60;99.90
48912;DHT22;34722;52.108;5.044;2023-11-21T14:28:41;9.60;99.90
48912;DHT22;34722;52.108;5.044;2023-11-21T14:31:07;9.60;99.90
48912;DHT22;34722;52.108;5.044;2023-11-21T14:33:38;9.50;99.90
48912;DHT22;34722;52.108;5.044;2023-11-21T14:36:04;9.50;99.90
48912;DHT22;34722;52.108;5.044;2023-11-21T14:38:30;9.50;99.90
48912;DHT22;34722;52.108;5.044;2023-11-21T14:40:55;9.50;99.90
48912;DHT22;34722;52.108;5.044;2023-11-21T14:43:22;9.40;99.90
48912;DHT22;34722;52.108;5.044;2023-11-21T14:45:48;9.40;99.90
48912;DHT22;34722;52.108;5.044;2023-11-21T14:48:14;9.40;99.90
48912;DHT22;34722;52.108;5.044;2023-11-21T14:50:54;9.40;99.90
48912;DHT22;34722;52.108;5.044;2023-11-21T14:53:28;9.40;99.90
48912;DHT22;34722;52.108;5.044;2023-11-21T14:56:19;9.30;99.90
48912;DHT22;34722;52.108;5.044;2023-11-21T14:58:52;9.30;99.90
48912;DHT22;34722;52.108;5.044;2023-11-21T15:01:19;9.20;99.90
48912;DHT22;34722;52.108;5.044;2023-11-21T15:03:56;9.20;99.90
48912;DHT22;34722;52.108;5.044;2023-11-21T15:06:21;9.30;99.90
48912;DHT22;34722;52.108;5.044;2023-11-21T15:08:53;9.20;99.90
48912;DHT22;34722;52.108;5.044;2023-11-21T15:11:35;9.20;99.90
48912;DHT22;34722;52.108;5.044;2023-11-21T15:14:02;9.20;99.90
48912;DHT22;34722;52.108;5.044;2023-11-21T15:16:35;9.20;99.90
48912;DHT22;34722;52.108;5.044;2023-11-21T15:19:08;9.10;99.90
48912;DHT22;34722;52.108;5.044;2023-11-21T15:21:36;9.10;99.90
48912;DHT22;34722;52.108;5.044;2023-11-21T15:24:12;9.10;99.90
48912;DHT22;34722;52.108;5.044;2023-11-21T15:26:37;9.10;99.90
48912;DHT22;34722;52.108;5.044;2023-11-21T15:29:04;9.00;99.90
48912;DHT22;34722;52.108;5.044;2023-11-21T15:31:30;9.00;99.90
48912;DHT22;34722;52.108;5.044;2023-11-21T15:33:55;9.00;99.90
48912;DHT22;34722;52.108;5.044;2023-11-21T15:36:26;9.00;99.90
48912;DHT22;34722;52.108;5.044;2023-11-21T15:38:53;9.00;99.90
48912;DHT22;34722;52.108;5.044;2023-11-21T15:41:19;9.00;99.90
48912;DHT22;34722;52.108;5.044;2023-11-21T15:43:49;8.90;99.90
48912;DHT22;34722;52.108;5.044;2023-11-21T15:46:16;8.90;99.90
48912;DHT22;34722;52.108;5.044;2023-11-21T15:48:42;8.90;99.90
48912;DHT22;34722;52.108;5.044;2023-11-21T15:51:15;8.80;99.90
48912;DHT22;34722;52.108;5.044;2023-11-21T15:53:42;8.80;99.90
48912;DHT22;34722;52.108;5.044;2023-11-21T15:56:08;8.80;99.90
48912;DHT22;34722;52.108;5.044;2023-11-21T15:58:39;8.80;99.90
48912;DHT22;34722;52.108;5.044;2023-11-21T16:01:11;8.80;99.90
48912;DHT22;34722;52.108;5.044;2023-11-21T16:03:38;8.80;99.90
48912;DHT22;34722;52.108;5.044;2023-11-21T16:06:04;8.70;99.90
48912;DHT22;34722;52.108;5.044;2023-11-21T16:08:31;8.80;99.90
48912;DHT22;34722;52.108;5.044;2023-11-21T16:10:56;8.70;99.90
48912;DHT22;34722;52.108;5.044;2023-11-21T16:13:22;8.70;99.90
48912;DHT22;34722;52.108;5.044;2023-11-21T16:15:48;8.60;99.90